sensor_id;sensor_type;location;lat;lon;timestamp;pressure;altitude;pressure_sealevel;temperature;humidity
70458;BME280;57919;56.194;95.716;2022-08-18T00:07:49;98518.59;;;13.07;69.95
70458;BME280;57919;56.194;95.716;2022-08-18T00:17:51;98514.84;;;12.91;69.75
70458;BME280;57919;56.194;95.716;2022-08-18T00:27:53;98532.22;;;13.47;69.00
70458;BME280;57919;56.194;95.716;2022-08-18T00:37:56;98537.50;;;13.33;68.42
70458;BME280;57919;56.194;95.716;2022-08-18T00:47:59;98536.19;;;12.78;68.89
70458;BME280;57919;56.194;95.716;2022-08-18T00:58:17;98558.31;;;12.49;69.42
70458;BME280;57919;56.194;95.716;2022-08-18T01:08:21;98547.84;;;12.63;69.50
70458;BME280;57919;56.194;95.716;2022-08-18T01:18:23;98554.06;;;12.97;68.53
70458;BME280;57919;56.194;95.716;2022-08-18T01:28:45;98544.03;;;14.59;65.32
70458;BME280;57919;56.194;95.716;2022-08-18T01:38:50;98543.53;;;14.00;65.94
70458;BME280;57919;56.194;95.716;2022-08-18T01:48:52;98548.19;;;13.67;66.41
70458;BME280;57919;56.194;95.716;2022-08-18T01:58:55;98544.31;;;14.72;64.49
70458;BME280;57919;56.194;95.716;2022-08-18T02:08:56;98553.28;;;15.11;62.88
70458;BME280;57919;56.194;95.716;2022-08-18T02:18:58;98549.53;;;14.50;63.86
70458;BME280;57919;56.194;95.716;2022-08-18T02:29:00;98552.53;;;14.08;63.70
70458;BME280;57919;56.194;95.716;2022-08-18T02:39:03;98557.00;;;13.85;64.40
70458;BME280;57919;56.194;95.716;2022-08-18T02:49:05;98556.97;;;14.01;64.54
70458;BME280;57919;56.194;95.716;2022-08-18T02:59:14;98545.22;;;14.01;64.15
70458;BME280;57919;56.194;95.716;2022-08-18T03:09:17;98557.97;;;14.08;64.12
70458;BME280;57919;56.194;95.716;2022-08-18T03:19:19;98543.31;;;14.17;64.11
70458;BME280;57919;56.194;95.716;2022-08-18T03:29:22;98539.22;;;14.69;63.06
70458;BME280;57919;56.194;95.716;2022-08-18T03:39:24;98532.06;;;14.99;62.44
70458;BME280;57919;56.194;95.716;2022-08-18T03:49:28;98556.13;;;16.16;60.06
70458;BME280;57919;56.194;95.716;2022-08-18T03:59:30;98545.94;;;17.20;57.55
70458;BME280;57919;56.194;95.716;2022-08-18T04:09:33;98553.41;;;16.60;56.73
70458;BME280;57919;56.194;95.716;2022-08-18T04:19:36;98548.41;;;17.15;56.05
70458;BME280;57919;56.194;95.716;2022-08-18T04:29:38;98549.56;;;17.05;55.49
70458;BME280;57919;56.194;95.716;2022-08-18T04:39:41;98542.56;;;17.18;54.95
70458;BME280;57919;56.194;95.716;2022-08-18T04:49:43;98545.81;;;17.49;53.32
70458;BME280;57919;56.194;95.716;2022-08-18T04:59:48;98534.28;;;17.11;53.53
70458;BME280;57919;56.194;95.716;2022-08-18T05:09:50;98543.09;;;16.92;53.87
70458;BME280;57919;56.194;95.716;2022-08-18T05:19:54;98556.78;;;16.62;54.65
70458;BME280;57919;56.194;95.716;2022-08-18T05:29:57;98557.75;;;16.69;54.50
70458;BME280;57919;56.194;95.716;2022-08-18T05:40:01;98552.06;;;16.86;54.54
70458;BME280;57919;56.194;95.716;2022-08-18T05:50:13;98545.16;;;17.04;53.56
70458;BME280;57919;56.194;95.716;2022-08-18T06:00:18;98534.56;;;18.08;51.09
70458;BME280;57919;56.194;95.716;2022-08-18T06:10:25;98533.94;;;19.62;48.02
70458;BME280;57919;56.194;95.716;2022-08-18T06:31:29;98522.81;;;20.75;44.33
70458;BME280;57919;56.194;95.716;2022-08-18T06:41:38;98530.72;;;19.39;46.30
70458;BME280;57919;56.194;95.716;2022-08-18T06:51:43;98525.16;;;18.99;46.86
70458;BME280;57919;56.194;95.716;2022-08-18T07:01:49;98520.84;;;18.77;46.91
70458;BME280;57919;56.194;95.716;2022-08-18T07:12:22;98533.44;;;18.65;46.70
70458;BME280;57919;56.194;95.716;2022-08-18T07:22:25;98533.22;;;19.21;46.03
70458;BME280;57919;56.194;95.716;2022-08-18T07:43:16;98525.19;;;19.13;46.26
70458;BME280;57919;56.194;95.716;2022-08-18T07:53:35;98525.50;;;20.10;45.77
70458;BME280;57919;56.194;95.716;2022-08-18T08:14:10;98522.13;;;18.81;46.18
70458;BME280;57919;56.194;95.716;2022-08-18T08:44:55;98529.19;;;17.93;49.15
70458;BME280;57919;56.194;95.716;2022-08-18T08:55:23;98535.59;;;17.79;49.58
70458;BME280;57919;56.194;95.716;2022-08-18T09:05:30;98535.75;;;17.71;49.72
70458;BME280;57919;56.194;95.716;2022-08-18T09:25:56;98528.84;;;17.75;49.60
70458;BME280;57919;56.194;95.716;2022-08-18T10:06:52;98516.34;;;17.66;50.23
70458;BME280;57919;56.194;95.716;2022-08-18T10:27:05;98515.00;;;17.62;50.81
70458;BME280;57919;56.194;95.716;2022-08-18T10:47:31;98522.56;;;17.17;50.88
70458;BME280;57919;56.194;95.716;2022-08-18T11:07:36;98551.03;;;16.87;52.63
70458;BME280;57919;56.194;95.716;2022-08-18T11:27:53;98531.44;;;14.89;60.23
70458;BME280;57919;56.194;95.716;2022-08-18T11:38:01;98524.81;;;15.14;60.27
70458;BME280;57919;56.194;95.716;2022-08-18T12:19:01;98537.91;;;15.18;63.87
70458;BME280;57919;56.194;95.716;2022-08-18T12:29:03;98533.13;;;15.21;63.67
70458;BME280;57919;56.194;95.716;2022-08-18T12:39:05;98542.31;;;15.19;63.57
70458;BME280;57919;56.194;95.716;2022-08-18T12:49:15;98554.88;;;14.98;63.28
70458;BME280;57919;56.194;95.716;2022-08-18T12:59:17;98563.28;;;14.57;63.53
70458;BME280;57919;56.194;95.716;2022-08-18T13:09:20;98553.19;;;14.10;63.80
70458;BME280;57919;56.194;95.716;2022-08-18T13:19:23;98563.97;;;13.71;64.27
70458;BME280;57919;56.194;95.716;2022-08-18T13:29:25;98577.91;;;13.52;64.80
70458;BME280;57919;56.194;95.716;2022-08-18T13:39:27;98571.97;;;13.40;65.16
70458;BME280;57919;56.194;95.716;2022-08-18T13:49:29;98572.47;;;13.44;65.07
70458;BME280;57919;56.194;95.716;2022-08-18T13:59:31;98567.72;;;13.46;65.21
70458;BME280;57919;56.194;95.716;2022-08-18T14:09:34;98575.88;;;13.46;65.26
70458;BME280;57919;56.194;95.716;2022-08-18T14:19:37;98592.34;;;13.36;65.48
70458;BME280;57919;56.194;95.716;2022-08-18T14:29:57;98581.97;;;13.23;65.62
70458;BME280;57919;56.194;95.716;2022-08-18T14:40:00;98575.63;;;13.07;66.11
70458;BME280;57919;56.194;95.716;2022-08-18T14:50:02;98562.31;;;12.71;66.62
70458;BME280;57919;56.194;95.716;2022-08-18T15:00:07;98568.66;;;12.46;67.13
70458;BME280;57919;56.194;95.716;2022-08-18T15:10:13;98570.41;;;12.21;67.48
70458;BME280;57919;56.194;95.716;2022-08-18T15:20:15;98567.91;;;12.02;67.90
70458;BME280;57919;56.194;95.716;2022-08-18T15:30:19;98563.94;;;11.88;67.73
70458;BME280;57919;56.194;95.716;2022-08-18T15:40:24;98560.47;;;11.78;67.96
70458;BME280;57919;56.194;95.716;2022-08-18T15:50:28;98568.56;;;11.95;67.89
70458;BME280;57919;56.194;95.716;2022-08-18T16:00:31;98560.84;;;12.09;67.62
70458;BME280;57919;56.194;95.716;2022-08-18T16:10:35;98565.34;;;12.26;67.55
70458;BME280;57919;56.194;95.716;2022-08-18T16:20:37;98558.91;;;12.27;67.82
70458;BME280;57919;56.194;95.716;2022-08-18T16:30:40;98564.00;;;12.30;68.17
70458;BME280;57919;56.194;95.716;2022-08-18T16:40:42;98558.53;;;12.22;68.31
70458;BME280;57919;56.194;95.716;2022-08-18T16:50:44;98536.16;;;12.20;68.59
70458;BME280;57919;56.194;95.716;2022-08-18T17:00:46;98545.19;;;12.28;68.55
70458;BME280;57919;56.194;95.716;2022-08-18T17:11:12;98550.13;;;12.33;68.63
70458;BME280;57919;56.194;95.716;2022-08-18T17:21:18;98544.16;;;12.29;68.63
70458;BME280;57919;56.194;95.716;2022-08-18T17:31:21;98546.88;;;12.29;68.81
70458;BME280;57919;56.194;95.716;2022-08-18T17:41:25;98544.84;;;12.32;68.79
70458;BME280;57919;56.194;95.716;2022-08-18T18:01:36;98534.69;;;12.34;68.83
70458;BME280;57919;56.194;95.716;2022-08-18T18:11:41;98534.56;;;12.43;68.56
70458;BME280;57919;56.194;95.716;2022-08-18T18:21:43;98511.31;;;12.33;68.87
70458;BME280;57919;56.194;95.716;2022-08-18T18:41:52;98534.22;;;12.38;68.79
70458;BME280;57919;56.194;95.716;2022-08-18T19:02:25;98508.31;;;12.10;69.24
70458;BME280;57919;56.194;95.716;2022-08-18T19:12:33;98523.75;;;12.09;69.62
70458;BME280;57919;56.194;95.716;2022-08-18T19:23:05;98511.63;;;11.95;70.29
70458;BME280;57919;56.194;95.716;2022-08-18T19:33:26;98519.03;;;11.85;70.33
70458;BME280;57919;56.194;95.716;2022-08-18T19:43:46;98524.81;;;11.64;70.85
70458;BME280;57919;56.194;95.716;2022-08-18T19:54:01;98519.50;;;11.55;70.89
70458;BME280;57919;56.194;95.716;2022-08-18T20:14:38;98522.94;;;11.39;71.55
70458;BME280;57919;56.194;95.716;2022-08-18T20:24:49;98515.59;;;11.31;71.36
70458;BME280;57919;56.194;95.716;2022-08-18T20:34:52;98502.69;;;11.25;71.75
70458;BME280;57919;56.194;95.716;2022-08-18T20:44:57;98508.09;;;11.25;71.70
70458;BME280;57919;56.194;95.716;2022-08-18T21:15:28;98493.66;;;11.17;71.96
70458;BME280;57919;56.194;95.716;2022-08-18T21:25:31;98484.28;;;11.11;71.98
70458;BME280;57919;56.194;95.716;2022-08-18T21:35:34;98491.03;;;11.07;72.25
70458;BME280;57919;56.194;95.716;2022-08-18T21:45:49;98480.19;;;11.07;72.10
70458;BME280;57919;56.194;95.716;2022-08-18T21:56:00;98473.78;;;11.08;72.21
70458;BME280;57919;56.194;95.716;2022-08-18T22:06:16;98462.09;;;11.08;72.34
70458;BME280;57919;56.194;95.716;2022-08-18T22:16:32;98466.97;;;11.04;72.57
70458;BME280;57919;56.194;95.716;2022-08-18T22:26:38;98465.06;;;10.96;72.46
70458;BME280;57919;56.194;95.716;2022-08-18T22:36:51;98479.28;;;10.98;72.54
70458;BME280;57919;56.194;95.716;2022-08-18T22:46:54;98475.78;;;11.06;72.29
70458;BME280;57919;56.194;95.716;2022-08-18T22:56:56;98492.09;;;11.14;72.08
70458;BME280;57919;56.194;95.716;2022-08-18T23:06:58;98491.03;;;11.07;71.87
70458;BME280;57919;56.194;95.716;2022-08-18T23:17:02;98510.72;;;11.17;71.72
70458;BME280;57919;56.194;95.716;2022-08-18T23:27:05;98507.88;;;11.19;71.70
70458;BME280;57919;56.194;95.716;2022-08-18T23:37:07;98514.19;;;11.27;71.73
70458;BME280;57919;56.194;95.716;2022-08-18T23:47:10;98525.94;;;11.36;71.50
70458;BME280;57919;56.194;95.716;2022-08-18T23:57:12;98518.09;;;11.51;71.33
